createdAt,value
2023-05-22T00:01:59.334Z,9.63
2023-05-22T00:04:30.035Z,10.27
2023-05-22T00:06:56.768Z,10.93
2023-05-22T00:09:25.470Z,9.70
2023-05-22T00:11:52.623Z,10.43
2023-05-22T00:14:19.259Z,9.57
2023-05-22T00:16:48.296Z,11.00
2023-05-22T00:19:17.194Z,11.30
2023-05-22T00:21:44.178Z,9.90
2023-05-22T00:24:10.746Z,10.80
2023-05-22T00:26:37.265Z,10.23
2023-05-22T00:29:05.656Z,12.10
2023-05-22T00:31:32.124Z,9.63
2023-05-22T00:33:59.199Z,13.53
2023-05-22T00:36:25.792Z,9.50
2023-05-22T00:38:52.268Z,12.77
2023-05-22T00:41:18.861Z,12.80
2023-05-22T00:43:45.580Z,14.87
2023-05-22T00:46:12.881Z,11.50
2023-05-22T00:48:39.406Z,11.07
2023-05-22T00:51:06.775Z,10.40
2023-05-22T00:53:33.976Z,9.17
2023-05-22T00:56:01.009Z,11.73
2023-05-22T00:58:27.539Z,10.13
2023-05-22T01:00:55.483Z,10.70
2023-05-22T01:03:26.879Z,11.10
2023-05-22T01:05:54.431Z,9.70
2023-05-22T01:08:21.457Z,10.50
2023-05-22T01:10:50.629Z,11.43
2023-05-22T01:13:26.087Z,8.47
2023-05-22T01:16:00.712Z,9.50
2023-05-22T01:18:37.604Z,9.37
2023-05-22T01:21:10.348Z,15.80
2023-05-22T01:24:06.449Z,16.60
2023-05-22T01:27:08.157Z,13.17
2023-05-22T01:29:48.273Z,10.07
2023-05-22T01:32:17.626Z,9.30
2023-05-22T01:34:45.587Z,11.50
2023-05-22T01:37:13.364Z,9.27
2023-05-22T01:39:40.451Z,12.03
2023-05-22T01:42:07.704Z,12.30
2023-05-22T01:44:34.136Z,15.73
2023-05-22T01:47:05.039Z,11.77
2023-05-22T01:49:35.614Z,10.27
2023-05-22T01:52:34.527Z,11.00
2023-05-22T01:55:05.644Z,10.93
2023-05-22T01:57:38.027Z,12.43
2023-05-22T02:00:15.504Z,11.20
2023-05-22T02:02:45.325Z,11.23
2023-05-22T02:05:12.546Z,8.87
2023-05-22T02:07:40.464Z,9.07
2023-05-22T02:10:08.556Z,12.50
2023-05-22T02:12:35.598Z,11.80
2023-05-22T02:15:02.105Z,9.53
2023-05-22T02:17:28.588Z,11.57
2023-05-22T02:19:55.187Z,13.00
2023-05-22T02:22:21.853Z,13.50
2023-05-22T02:24:48.860Z,11.43
2023-05-22T02:27:15.437Z,10.53
2023-05-22T02:29:41.872Z,10.77
2023-05-22T02:32:08.344Z,10.73
2023-05-22T02:34:35.063Z,10.23
2023-05-22T02:37:05.500Z,9.37
2023-05-22T02:39:31.962Z,9.67
2023-05-22T02:41:58.390Z,12.07
2023-05-22T02:44:24.897Z,12.83
2023-05-22T02:46:51.585Z,10.40
2023-05-22T02:49:18.105Z,11.17
2023-05-22T02:51:47.590Z,10.20
2023-05-22T02:54:15.609Z,9.93
2023-05-22T02:56:45.429Z,12.60
2023-05-22T02:59:11.896Z,10.63
2023-05-22T03:01:39.666Z,10.97
2023-05-22T03:04:06.633Z,8.23
2023-05-22T03:06:34.280Z,9.63
2023-05-22T03:09:01.188Z,11.30
2023-05-22T03:11:27.811Z,8.53
2023-05-22T03:13:54.260Z,12.57
2023-05-22T03:16:20.828Z,12.40
2023-05-22T03:18:47.445Z,13.00
2023-05-22T03:21:13.904Z,9.43
2023-05-22T03:23:40.329Z,15.20
2023-05-22T03:26:06.787Z,13.17
2023-05-22T03:28:33.285Z,9.93
2023-05-22T03:30:59.743Z,12.93
2023-05-22T03:33:26.183Z,11.00
2023-05-22T03:35:53.214Z,9.20
2023-05-22T03:38:19.649Z,9.40
2023-05-22T03:40:46.061Z,8.17
2023-05-22T03:43:12.779Z,11.67
2023-05-22T03:45:39.431Z,9.17
2023-05-22T03:48:06.116Z,11.50
2023-05-22T03:50:32.570Z,9.30
2023-05-22T03:52:59.434Z,10.70
2023-05-22T03:55:26.599Z,13.40
2023-05-22T03:57:53.056Z,8.10
2023-05-22T04:00:19.728Z,8.97
2023-05-22T04:02:46.886Z,9.10
2023-05-22T04:05:13.563Z,9.80
2023-05-22T04:07:40.049Z,13.63
2023-05-22T04:10:06.999Z,10.10
2023-05-22T04:12:33.575Z,9.47
2023-05-22T04:15:00.038Z,9.70
2023-05-22T04:17:31.387Z,10.77
2023-05-22T04:19:58.353Z,9.53
2023-05-22T04:22:24.962Z,10.13
2023-05-22T04:24:51.401Z,13.57
2023-05-22T04:27:18.215Z,9.17
2023-05-22T04:29:45.160Z,11.80
2023-05-22T04:32:11.614Z,8.83
2023-05-22T04:34:38.059Z,10.90
2023-05-22T04:37:05.280Z,8.47
2023-05-22T04:39:31.800Z,10.93
2023-05-22T04:41:58.273Z,10.10
2023-05-22T04:44:24.720Z,9.37
2023-05-22T04:46:51.312Z,9.23
2023-05-22T04:49:17.774Z,8.03
2023-05-22T04:51:44.217Z,9.23
2023-05-22T04:54:10.871Z,14.87
2023-05-22T04:56:37.574Z,11.23
2023-05-22T04:59:05.494Z,10.77
2023-05-22T05:01:33.490Z,11.17
2023-05-22T05:04:00.210Z,9.20
2023-05-22T05:06:27.315Z,9.00
2023-05-22T05:08:54.114Z,8.37
2023-05-22T05:11:21.612Z,8.50
2023-05-22T05:13:48.172Z,13.97
2023-05-22T05:16:14.797Z,7.53
2023-05-22T05:18:41.251Z,7.63
2023-05-22T05:21:08.088Z,12.27
2023-05-22T05:23:34.768Z,8.40
2023-05-22T05:26:01.305Z,12.47
2023-05-22T05:28:27.755Z,10.03
2023-05-22T05:30:54.207Z,10.53
2023-05-22T05:33:20.666Z,10.77
2023-05-22T05:35:47.176Z,9.63
2023-05-22T05:38:13.729Z,7.23
2023-05-22T05:40:40.399Z,8.33
2023-05-22T05:43:09.292Z,7.33
2023-05-22T05:45:36.080Z,8.87
2023-05-22T05:48:02.595Z,12.17
2023-05-22T05:50:29.062Z,8.97
2023-05-22T05:52:55.634Z,10.00
2023-05-22T05:55:22.068Z,6.93
2023-05-22T05:57:48.539Z,7.73
2023-05-22T06:00:15.355Z,8.80
2023-05-22T06:02:42.244Z,13.13
2023-05-22T06:05:09.216Z,10.87
2023-05-22T06:07:39.802Z,8.87
2023-05-22T06:10:07.324Z,8.33
2023-05-22T06:12:33.829Z,8.77
2023-05-22T06:15:00.542Z,8.33
2023-05-22T06:17:27.337Z,8.07
2023-05-22T06:19:54.058Z,8.53
2023-05-22T06:22:20.519Z,10.23
2023-05-22T06:24:46.943Z,10.10
2023-05-22T06:27:13.413Z,10.57
2023-05-22T06:29:39.858Z,10.10
2023-05-22T06:32:06.708Z,12.17
2023-05-22T06:34:33.160Z,10.57
2023-05-22T06:36:59.678Z,8.47
2023-05-22T06:39:26.510Z,8.13
2023-05-22T06:41:52.948Z,9.63
2023-05-22T06:44:20.235Z,8.37
2023-05-22T06:46:46.769Z,8.70
2023-05-22T06:49:13.279Z,7.67
2023-05-22T06:51:40.042Z,9.77
2023-05-22T06:54:07.681Z,12.33
2023-05-22T06:56:34.205Z,11.33
2023-05-22T06:59:00.869Z,8.13
2023-05-22T07:01:29.235Z,6.73
2023-05-22T07:04:00.405Z,9.37
2023-05-22T07:06:27.592Z,10.03
2023-05-22T07:08:54.104Z,7.40
2023-05-22T07:11:20.903Z,10.57
2023-05-22T07:13:47.316Z,6.60
2023-05-22T07:16:14.636Z,5.67
2023-05-22T07:18:41.981Z,9.33
2023-05-22T07:21:08.564Z,6.47
2023-05-22T07:23:35.023Z,10.70
2023-05-22T07:26:01.467Z,9.00
2023-05-22T07:28:27.911Z,12.27
2023-05-22T07:30:54.364Z,10.87
2023-05-22T07:33:20.974Z,7.37
2023-05-22T07:35:47.420Z,7.47
2023-05-22T07:38:13.875Z,8.93
2023-05-22T07:40:40.571Z,8.17
2023-05-22T07:43:07.246Z,8.77
2023-05-22T07:45:33.719Z,8.27
2023-05-22T07:48:01.898Z,10.93
2023-05-22T07:50:30.424Z,9.10
2023-05-22T07:52:56.983Z,7.20
2023-05-22T07:55:23.420Z,7.80
2023-05-22T07:57:50.753Z,7.47
2023-05-22T08:00:17.735Z,10.57
2023-05-22T08:02:45.033Z,6.60
2023-05-22T08:05:12.205Z,9.97
2023-05-22T08:07:38.836Z,7.80
2023-05-22T08:10:14.025Z,9.33
2023-05-22T08:12:40.693Z,8.87
2023-05-22T08:15:07.714Z,10.10
2023-05-22T08:17:34.920Z,8.33
2023-05-22T08:20:01.632Z,9.93
2023-05-22T08:22:29.849Z,9.30
2023-05-22T08:24:56.805Z,13.20
2023-05-22T08:27:23.307Z,12.60
2023-05-22T08:29:50.020Z,11.80
2023-05-22T08:32:16.479Z,10.73
2023-05-22T08:34:42.924Z,9.93
2023-05-22T08:37:15.503Z,9.20
2023-05-22T08:39:41.937Z,13.60
2023-05-22T08:42:08.550Z,11.27
2023-05-22T08:44:35.156Z,9.90
2023-05-22T08:47:05.058Z,10.47
2023-05-22T08:49:32.054Z,11.07
2023-05-22T08:52:09.623Z,8.67
2023-05-22T08:54:36.758Z,9.07
2023-05-22T08:57:03.383Z,11.60
2023-05-22T08:59:30.437Z,9.83
2023-05-22T09:01:58.041Z,12.67
2023-05-22T09:04:25.408Z,9.30
2023-05-22T09:06:52.210Z,11.07
2023-05-22T09:09:18.908Z,12.40
2023-05-22T09:11:45.619Z,14.40
2023-05-22T09:14:12.462Z,12.77
2023-05-22T09:16:49.900Z,11.33
2023-05-22T09:19:16.463Z,11.17
2023-05-22T09:21:44.460Z,9.83
2023-05-22T09:24:11.402Z,11.70
2023-05-22T09:26:41.450Z,10.67
2023-05-22T09:29:08.135Z,12.27
2023-05-22T09:31:44.797Z,12.10
2023-05-22T09:34:14.750Z,9.77
2023-05-22T09:36:42.009Z,12.87
2023-05-22T09:39:08.564Z,13.20
2023-05-22T09:41:39.792Z,10.13
2023-05-22T09:44:13.985Z,10.70
2023-05-22T09:46:42.474Z,10.53
2023-05-22T09:49:08.993Z,12.50
2023-05-22T09:51:36.278Z,11.97
2023-05-22T09:54:03.928Z,13.40
2023-05-22T09:56:39.206Z,10.47
2023-05-22T09:59:08.841Z,17.67
2023-05-22T10:01:36.536Z,9.13
2023-05-22T10:04:04.406Z,12.30
2023-05-22T10:06:32.240Z,11.93
2023-05-22T10:09:04.608Z,10.70
2023-05-22T10:11:31.996Z,12.83
2023-05-22T10:14:00.201Z,14.20
2023-05-22T10:16:27.608Z,12.73
2023-05-22T10:18:55.239Z,11.67
2023-05-22T10:21:22.174Z,11.83
2023-05-22T10:23:49.555Z,10.70
2023-05-22T10:26:16.879Z,11.77
2023-05-22T10:28:48.036Z,11.90
2023-05-22T10:32:05.782Z,10.87
2023-05-22T10:35:07.818Z,12.53
2023-05-22T10:37:53.942Z,13.07
2023-05-22T10:40:33.039Z,15.83
2023-05-22T10:43:01.074Z,11.00
2023-05-22T10:45:29.059Z,12.10
2023-05-22T10:48:04.210Z,12.03
2023-05-22T10:50:30.891Z,12.37
2023-05-22T10:53:21.236Z,11.10
2023-05-22T10:55:52.325Z,13.83
2023-05-22T10:58:26.404Z,12.33
2023-05-22T11:01:18.212Z,14.43
2023-05-22T11:03:58.383Z,14.60
2023-05-22T11:06:38.015Z,13.10
2023-05-22T11:09:32.636Z,13.77
2023-05-22T11:12:31.253Z,13.77
2023-05-22T11:14:59.656Z,15.30
2023-05-22T11:17:30.847Z,11.93
2023-05-22T11:20:15.524Z,14.87
2023-05-22T11:22:43.255Z,16.70
2023-05-22T11:25:11.572Z,12.70
2023-05-22T11:27:40.888Z,17.40
2023-05-22T11:30:08.764Z,12.97
2023-05-22T11:32:36.606Z,13.03
2023-05-22T11:35:05.377Z,13.77
2023-05-22T11:37:32.699Z,12.83
2023-05-22T11:40:05.831Z,20.13
2023-05-22T11:42:32.888Z,17.80
2023-05-22T11:44:59.941Z,15.40
2023-05-22T11:47:29.551Z,17.97
2023-05-22T11:50:03.178Z,16.07
2023-05-22T11:52:33.436Z,13.30
2023-05-22T11:55:00.381Z,13.70
2023-05-22T11:57:26.999Z,14.30
2023-05-22T11:59:53.564Z,16.77
2023-05-22T12:02:20.101Z,13.87
2023-05-22T12:04:46.824Z,19.07
2023-05-22T12:07:13.440Z,13.57
2023-05-22T12:09:40.091Z,15.87
2023-05-22T12:12:06.555Z,18.77
2023-05-22T12:14:33.050Z,19.43
2023-05-22T12:16:59.920Z,18.03
2023-05-22T12:19:27.430Z,15.33
2023-05-22T12:21:54.194Z,22.63
2023-05-22T12:24:23.649Z,20.03
2023-05-22T12:26:58.945Z,17.17
2023-05-22T12:29:25.585Z,14.93
2023-05-22T12:31:52.105Z,19.37
2023-05-22T12:34:19.030Z,20.00
2023-05-22T12:36:46.758Z,17.70
2023-05-22T12:39:17.980Z,18.13
2023-05-22T12:41:47.612Z,22.00
2023-05-22T12:44:16.340Z,19.60
2023-05-22T12:46:43.262Z,17.23
2023-05-22T12:49:10.532Z,16.83
2023-05-22T12:51:37.049Z,20.53
2023-05-22T12:54:03.958Z,17.67
2023-05-22T12:56:31.048Z,20.33
2023-05-22T12:58:58.059Z,20.73
2023-05-22T13:01:24.875Z,22.10
2023-05-22T13:03:52.475Z,23.90
2023-05-22T13:06:19.348Z,20.40
2023-05-22T13:08:45.857Z,22.10
2023-05-22T13:11:12.427Z,18.30
2023-05-22T13:13:38.924Z,16.57
2023-05-22T13:16:05.541Z,18.47
2023-05-22T13:18:32.151Z,16.50
2023-05-22T13:21:00.124Z,16.10
2023-05-22T13:23:26.599Z,17.73
2023-05-22T13:25:53.210Z,12.67
2023-05-22T13:28:19.745Z,14.33
2023-05-22T13:30:46.248Z,13.90
2023-05-22T13:33:13.600Z,16.27
2023-05-22T13:35:40.376Z,18.57
2023-05-22T13:38:07.176Z,16.03
2023-05-22T13:40:33.705Z,12.27
2023-05-22T13:43:00.323Z,17.07
2023-05-22T13:45:27.648Z,11.50
2023-05-22T13:47:54.226Z,13.30
2023-05-22T13:50:20.748Z,15.63
2023-05-22T13:52:47.428Z,17.30
2023-05-22T13:55:14.239Z,33.00
2023-05-22T13:57:41.213Z,19.57
2023-05-22T14:00:09.398Z,19.00
2023-05-22T14:02:36.148Z,18.93
2023-05-22T14:05:02.751Z,22.30
2023-05-22T14:07:29.229Z,17.63
2023-05-22T14:09:55.694Z,15.83
2023-05-22T14:12:22.177Z,16.13
2023-05-22T14:14:48.655Z,17.80
2023-05-22T14:17:15.267Z,15.83
2023-05-22T14:19:41.792Z,16.65
2023-05-22T14:22:08.519Z,14.95
2023-05-22T14:24:35.575Z,15.85
2023-05-22T14:27:02.234Z,14.45
2023-05-22T14:29:28.682Z,13.35
2023-05-22T14:32:02.989Z,15.88
2023-05-22T14:34:29.778Z,18.80
2023-05-22T14:36:59.063Z,17.05
2023-05-22T14:39:25.972Z,14.73
2023-05-22T14:41:53.262Z,15.95
2023-05-22T14:44:19.915Z,13.48
2023-05-22T14:46:46.548Z,12.90
2023-05-22T14:49:14.115Z,14.55
2023-05-22T14:51:40.753Z,14.68
2023-05-22T14:54:08.174Z,17.70
2023-05-22T14:56:34.612Z,14.10
2023-05-22T14:59:01.175Z,13.10
2023-05-22T15:01:27.633Z,15.40
2023-05-22T15:03:54.118Z,15.35
2023-05-22T15:06:20.623Z,15.30
2023-05-22T15:08:47.140Z,14.45
2023-05-22T15:11:13.573Z,13.45
2023-05-22T15:13:40.043Z,13.05
2023-05-22T15:16:07.045Z,17.15
2023-05-22T15:18:33.491Z,16.52
2023-05-22T15:21:01.027Z,16.15
2023-05-22T15:23:27.487Z,13.05
2023-05-22T15:25:54.269Z,15.73
2023-05-22T15:28:21.173Z,12.77
2023-05-22T15:30:47.684Z,18.60
2023-05-22T15:33:14.974Z,21.27
2023-05-22T15:35:43.383Z,21.60
2023-05-22T15:38:13.200Z,24.58
2023-05-22T15:40:40.652Z,22.10
2023-05-22T15:43:07.552Z,22.52
2023-05-22T15:45:35.945Z,22.65
2023-05-22T15:48:06.111Z,23.67
2023-05-22T15:50:33.760Z,19.35
2023-05-22T15:53:00.699Z,19.67
2023-05-22T15:55:27.178Z,18.58
2023-05-22T15:57:53.699Z,23.83
2023-05-22T16:00:21.452Z,19.45
2023-05-22T16:02:49.472Z,20.55
2023-05-22T16:05:16.081Z,19.52
2023-05-22T16:07:42.712Z,20.02
2023-05-22T16:10:09.818Z,20.83
2023-05-22T16:12:36.669Z,20.17
2023-05-22T16:15:06.625Z,20.20
2023-05-22T16:17:33.365Z,24.03
2023-05-22T16:19:59.875Z,18.27
2023-05-22T16:22:36.384Z,22.07
2023-05-22T16:25:13.091Z,23.83
2023-05-22T16:27:39.554Z,21.13
2023-05-22T16:30:06.804Z,19.93
2023-05-22T16:32:33.315Z,20.67
2023-05-22T16:34:59.799Z,21.60
2023-05-22T16:37:26.292Z,25.07
2023-05-22T16:39:52.782Z,21.37
2023-05-22T16:42:19.243Z,21.87
2023-05-22T16:44:45.747Z,19.53
2023-05-22T16:47:12.424Z,18.70
2023-05-22T16:49:40.466Z,19.57
2023-05-22T16:52:07.068Z,19.90
2023-05-22T16:54:33.625Z,21.93
2023-05-22T16:57:00.254Z,18.73
2023-05-22T16:59:26.899Z,21.83
2023-05-22T17:01:53.381Z,19.60
2023-05-22T17:04:20.700Z,24.70
2023-05-22T17:06:48.035Z,21.83
2023-05-22T17:09:14.520Z,22.67
2023-05-22T17:11:40.992Z,23.23
2023-05-22T17:14:07.478Z,21.23
2023-05-22T17:16:34.174Z,24.43
2023-05-22T17:19:01.818Z,24.23
2023-05-22T17:21:28.764Z,23.77
2023-05-22T17:23:55.254Z,20.80
2023-05-22T17:26:21.803Z,18.90
2023-05-22T17:28:48.274Z,22.87
2023-05-22T17:31:14.808Z,21.33
2023-05-22T17:33:41.673Z,17.23
2023-05-22T17:36:08.126Z,20.67
2023-05-22T17:38:34.595Z,22.80
2023-05-22T17:41:01.044Z,26.30
2023-05-22T17:43:27.541Z,21.10
2023-05-22T17:45:54.451Z,20.57
2023-05-22T17:48:23.798Z,19.87
2023-05-22T17:50:50.653Z,20.53
2023-05-22T17:53:17.862Z,19.57
2023-05-22T17:55:46.571Z,23.53
2023-05-22T17:58:16.867Z,19.77
2023-05-22T18:00:43.456Z,24.77
2023-05-22T18:03:10.168Z,20.00
2023-05-22T18:05:36.777Z,24.93
2023-05-22T18:08:03.280Z,20.20
2023-05-22T18:10:29.747Z,21.43
2023-05-22T18:12:56.403Z,27.00
2023-05-22T18:15:22.921Z,23.03
2023-05-22T18:17:49.408Z,24.97
2023-05-22T18:20:16.760Z,21.93
2023-05-22T18:22:43.258Z,23.80
2023-05-22T18:25:09.789Z,17.57
2023-05-22T18:27:36.386Z,21.07
2023-05-22T18:30:04.975Z,21.13
2023-05-22T18:32:31.832Z,20.50
2023-05-22T18:34:59.928Z,20.00
2023-05-22T18:37:26.575Z,22.07
2023-05-22T18:39:53.020Z,22.03
2023-05-22T18:42:19.568Z,27.40
2023-05-22T18:44:48.198Z,31.83
2023-05-22T18:47:15.715Z,26.70
2023-05-22T18:49:42.194Z,25.17
2023-05-22T18:52:08.696Z,26.50
2023-05-22T18:54:35.236Z,26.53
2023-05-22T18:57:01.923Z,30.63
2023-05-22T18:59:28.350Z,27.70
2023-05-22T19:01:54.855Z,22.50
2023-05-22T19:04:21.422Z,21.17
2023-05-22T19:06:47.943Z,24.03
2023-05-22T19:09:14.637Z,22.50
2023-05-22T19:11:41.338Z,25.37
2023-05-22T19:14:07.838Z,26.40
2023-05-22T19:16:34.608Z,27.13
2023-05-22T19:19:01.176Z,27.27
2023-05-22T19:21:27.664Z,24.27
2023-05-22T19:23:54.103Z,23.13
2023-05-22T19:26:20.963Z,22.70
2023-05-22T19:28:47.541Z,22.67
2023-05-22T19:31:14.067Z,21.43
2023-05-22T19:33:40.549Z,24.97
2023-05-22T19:36:07.098Z,22.07
2023-05-22T19:38:33.650Z,25.10
2023-05-22T19:41:00.067Z,19.23
2023-05-22T19:43:26.679Z,24.17
2023-05-22T19:45:54.083Z,20.77
2023-05-22T19:48:20.599Z,22.40
2023-05-22T19:50:47.109Z,25.30
2023-05-22T19:53:13.797Z,24.23
2023-05-22T19:55:40.997Z,23.33
2023-05-22T19:58:07.536Z,19.87
2023-05-22T20:00:35.582Z,23.10
2023-05-22T20:03:02.059Z,24.00
2023-05-22T20:05:28.898Z,21.77
2023-05-22T20:07:55.646Z,20.73
2023-05-22T20:10:23.820Z,23.83
2023-05-22T20:12:54.600Z,23.90
2023-05-22T20:15:22.822Z,27.73
2023-05-22T20:17:51.972Z,24.23
2023-05-22T20:20:19.500Z,22.33
2023-05-22T20:22:45.973Z,23.70
2023-05-22T20:25:13.229Z,27.90
2023-05-22T20:27:39.711Z,26.10
2023-05-22T20:30:07.774Z,23.20
2023-05-22T20:32:34.263Z,26.40
2023-05-22T20:35:00.714Z,19.20
2023-05-22T20:37:27.151Z,17.97
2023-05-22T20:39:53.589Z,22.63
2023-05-22T20:42:20.069Z,26.43
2023-05-22T20:44:46.771Z,26.67
2023-05-22T20:47:13.390Z,27.63
2023-05-22T20:49:40.391Z,27.93
2023-05-22T20:52:07.081Z,28.90
2023-05-22T20:54:34.895Z,23.97
2023-05-22T20:57:01.960Z,31.97
2023-05-22T20:59:28.995Z,29.67
2023-05-22T21:01:56.887Z,29.43
2023-05-22T21:04:23.867Z,27.70
2023-05-22T21:06:50.711Z,28.60
2023-05-22T21:09:17.316Z,27.70
2023-05-22T21:11:43.799Z,25.53
2023-05-22T21:14:10.373Z,28.40
2023-05-22T21:16:39.305Z,28.27
2023-05-22T21:19:07.554Z,32.40
2023-05-22T21:21:35.679Z,26.77
